createdAt,value
2018-01-31T01:56:40.830Z,0
2018-01-31T02:06:55.837Z,0
2018-01-31T02:17:11.448Z,0
2018-01-31T02:27:25.299Z,0
2018-01-31T02:37:40.898Z,0
2018-01-31T02:47:56.040Z,0
2018-01-31T02:58:10.238Z,0
2018-01-31T03:08:24.638Z,0
2018-01-31T03:18:40.011Z,0
2018-01-31T03:28:55.317Z,0
2018-01-31T03:39:10.650Z,0
2018-01-31T03:49:25.785Z,0
2018-01-31T03:59:40.005Z,0
2018-01-31T04:09:54.739Z,0
2018-01-31T04:20:10.051Z,0
2018-01-31T04:30:24.829Z,0
2018-01-31T04:40:38.635Z,0
2018-01-31T04:50:52.821Z,0
2018-01-31T05:01:06.654Z,0
2018-01-31T05:11:20.646Z,0
2018-01-31T05:31:50.354Z,0
2018-01-31T05:42:05.114Z,0
2018-01-31T05:52:20.777Z,0
2018-01-31T06:02:36.114Z,0
2018-01-31T06:12:50.841Z,0
2018-01-31T06:23:05.315Z,0
2018-01-31T06:33:20.518Z,0
2018-01-31T06:43:36.275Z,0
2018-01-31T06:53:50.425Z,0
2018-01-31T07:04:05.633Z,0
2018-01-31T07:14:21.088Z,0
2018-01-31T07:24:36.521Z,5
2018-01-31T07:34:51.859Z,10
2018-01-31T07:45:06.611Z,50
2018-01-31T07:55:21.843Z,55
2018-01-31T08:05:37.146Z,30
2018-01-31T08:15:51.635Z,25
2018-01-31T08:26:05.725Z,35
2018-01-31T08:36:19.922Z,40
2018-01-31T08:46:34.057Z,75
2018-01-31T08:56:49.231Z,145
2018-01-31T09:07:04.372Z,120
2018-01-31T09:17:19.295Z,70
2018-01-31T09:27:34.407Z,155
2018-01-31T09:37:49.859Z,125
2018-01-31T09:48:05.464Z,90
2018-01-31T09:58:20.841Z,90
2018-01-31T10:08:35.121Z,80
2018-01-31T10:18:49.500Z,75
2018-01-31T10:29:04.104Z,105
2018-01-31T10:39:18.158Z,90
2018-01-31T10:49:33.684Z,110
2018-01-31T10:59:49.327Z,120
2018-01-31T11:10:04.989Z,80
2018-01-31T11:20:18.866Z,105
2018-01-31T11:30:32.922Z,130
2018-01-31T11:40:48.020Z,85
2018-01-31T11:51:02.512Z,100
2018-01-31T12:01:17.047Z,115
2018-01-31T12:11:32.708Z,85
2018-01-31T12:21:46.607Z,15
2018-01-31T12:32:02.181Z,80
2018-01-31T12:42:16.174Z,65
2018-01-31T12:52:30.062Z,150
2018-01-31T13:02:44.653Z,150
2018-01-31T13:12:59.455Z,125
2018-01-31T13:23:14.517Z,130
2018-01-31T13:33:29.937Z,110
2018-01-31T13:43:43.885Z,95
2018-01-31T13:53:57.658Z,110
2018-01-31T14:04:11.884Z,105
2018-01-31T14:14:27.554Z,110
2018-01-31T14:24:41.336Z,95
2018-01-31T14:34:56.711Z,70
2018-01-31T14:45:10.592Z,60
2018-01-31T15:05:40.782Z,55
2018-01-31T15:15:54.408Z,45
2018-01-31T15:26:08.612Z,35
2018-01-31T15:36:22.609Z,10
2018-01-31T15:46:38.096Z,5
2018-01-31T15:56:53.504Z,10
2018-01-31T16:07:07.543Z,5
2018-01-31T16:17:23.005Z,0
2018-01-31T16:27:37.550Z,0
2018-01-31T16:37:52.497Z,0
2018-01-31T16:48:06.723Z,0
2018-01-31T16:58:20.581Z,0
2018-01-31T17:08:35.237Z,0
2018-01-31T17:18:50.369Z,0
2018-01-31T17:29:05.491Z,0
2018-01-31T17:39:20.011Z,0
2018-01-31T17:49:35.104Z,0
2018-01-31T17:59:48.723Z,0
2018-01-31T18:10:03.398Z,0
2018-01-31T18:20:17.683Z,0
2018-01-31T18:30:32.347Z,0
2018-01-31T18:40:46.190Z,0
2018-01-31T18:51:00.149Z,0
2018-01-31T19:01:14.598Z,0
2018-01-31T19:11:29.110Z,0
2018-01-31T19:21:44.562Z,0
2018-01-31T19:31:59.896Z,0
2018-01-31T19:42:13.906Z,0
2018-01-31T19:52:29.450Z,0
2018-01-31T20:02:43.816Z,0
2018-01-31T20:12:59.151Z,0
2018-01-31T20:23:14.769Z,0
2018-01-31T20:33:30.116Z,0
2018-01-31T20:43:44.764Z,0
2018-01-31T20:53:59.865Z,0
2018-01-31T21:04:14.924Z,0
2018-01-31T21:14:29.012Z,0
2018-01-31T21:24:43.636Z,0
2018-01-31T21:34:57.436Z,0
2018-01-31T21:45:11.763Z,0
2018-01-31T21:55:26.684Z,0
2018-01-31T22:05:40.354Z,0
2018-01-31T22:15:55.801Z,0
2018-01-31T22:26:09.987Z,0
2018-01-31T22:36:24.074Z,0
2018-01-31T22:46:38.008Z,0
2018-01-31T22:56:52.663Z,0
2018-01-31T23:07:07.726Z,0
2018-01-31T23:17:21.411Z,0
2018-01-31T23:27:36.301Z,0
2018-01-31T23:37:51.245Z,0
2018-01-31T23:48:04.953Z,0
2018-01-31T23:58:18.934Z,0
